sensor_id;sensor_type;location;lat;lon;timestamp;P1;durP1;ratioP1;P2;durP2;ratioP2
52104;SDS011;38103;42.776;23.112;2023-07-30T00:01:34;8.88;;;3.45;;
52104;SDS011;38103;42.776;23.112;2023-07-30T00:04:00;10.80;;;3.70;;
52104;SDS011;38103;42.776;23.112;2023-07-30T00:06:25;10.90;;;3.78;;
52104;SDS011;38103;42.776;23.112;2023-07-30T00:08:50;9.30;;;3.33;;
52104;SDS011;38103;42.776;23.112;2023-07-30T00:11:16;9.25;;;3.80;;
52104;SDS011;38103;42.776;23.112;2023-07-30T00:13:41;9.77;;;3.83;;
52104;SDS011;38103;42.776;23.112;2023-07-30T00:16:07;8.80;;;3.42;;
52104;SDS011;38103;42.776;23.112;2023-07-30T00:18:32;9.25;;;3.70;;
52104;SDS011;38103;42.776;23.112;2023-07-30T00:20:57;8.70;;;3.55;;
52104;SDS011;38103;42.776;23.112;2023-07-30T00:23:23;11.25;;;4.05;;
52104;SDS011;38103;42.776;23.112;2023-07-30T00:25:48;9.43;;;3.83;;
52104;SDS011;38103;42.776;23.112;2023-07-30T00:28:13;9.30;;;3.83;;
52104;SDS011;38103;42.776;23.112;2023-07-30T00:30:39;8.65;;;3.75;;
52104;SDS011;38103;42.776;23.112;2023-07-30T00:33:04;8.95;;;3.50;;
52104;SDS011;38103;42.776;23.112;2023-07-30T00:35:30;9.60;;;3.65;;
52104;SDS011;38103;42.776;23.112;2023-07-30T00:37:55;9.93;;;3.60;;
52104;SDS011;38103;42.776;23.112;2023-07-30T00:40:20;8.60;;;3.75;;
52104;SDS011;38103;42.776;23.112;2023-07-30T00:42:45;10.10;;;4.07;;
52104;SDS011;38103;42.776;23.112;2023-07-30T00:45:11;9.60;;;3.60;;
52104;SDS011;38103;42.776;23.112;2023-07-30T00:47:37;9.20;;;3.83;;
52104;SDS011;38103;42.776;23.112;2023-07-30T00:50:04;9.40;;;4.10;;
52104;SDS011;38103;42.776;23.112;2023-07-30T00:52:30;9.63;;;3.85;;
52104;SDS011;38103;42.776;23.112;2023-07-30T00:54:57;9.18;;;3.70;;
52104;SDS011;38103;42.776;23.112;2023-07-30T00:57:24;8.48;;;3.60;;
52104;SDS011;38103;42.776;23.112;2023-07-30T00:59:50;9.60;;;3.92;;
52104;SDS011;38103;42.776;23.112;2023-07-30T01:02:16;12.00;;;3.80;;
52104;SDS011;38103;42.776;23.112;2023-07-30T01:04:41;9.35;;;3.70;;
52104;SDS011;38103;42.776;23.112;2023-07-30T01:07:07;9.43;;;3.92;;
52104;SDS011;38103;42.776;23.112;2023-07-30T01:09:33;9.23;;;3.72;;
52104;SDS011;38103;42.776;23.112;2023-07-30T01:11:59;9.90;;;3.78;;
52104;SDS011;38103;42.776;23.112;2023-07-30T01:14:25;9.45;;;3.80;;
52104;SDS011;38103;42.776;23.112;2023-07-30T01:16:51;10.13;;;4.07;;
52104;SDS011;38103;42.776;23.112;2023-07-30T01:19:17;9.25;;;4.10;;
52104;SDS011;38103;42.776;23.112;2023-07-30T01:21:43;9.00;;;3.80;;
52104;SDS011;38103;42.776;23.112;2023-07-30T01:24:08;10.43;;;3.97;;
52104;SDS011;38103;42.776;23.112;2023-07-30T01:26:43;10.18;;;4.10;;
52104;SDS011;38103;42.776;23.112;2023-07-30T01:29:16;10.90;;;4.53;;
52104;SDS011;38103;42.776;23.112;2023-07-30T01:31:47;9.27;;;3.85;;
52104;SDS011;38103;42.776;23.112;2023-07-30T01:34:20;9.82;;;4.03;;
52104;SDS011;38103;42.776;23.112;2023-07-30T01:36:47;11.00;;;4.13;;
52104;SDS011;38103;42.776;23.112;2023-07-30T01:39:14;11.95;;;4.50;;
52104;SDS011;38103;42.776;23.112;2023-07-30T01:41:40;10.48;;;3.88;;
52104;SDS011;38103;42.776;23.112;2023-07-30T01:44:06;11.27;;;4.05;;
52104;SDS011;38103;42.776;23.112;2023-07-30T01:46:31;11.82;;;4.38;;
52104;SDS011;38103;42.776;23.112;2023-07-30T01:48:56;12.20;;;4.20;;
52104;SDS011;38103;42.776;23.112;2023-07-30T01:51:22;9.25;;;4.03;;
52104;SDS011;38103;42.776;23.112;2023-07-30T01:53:47;8.85;;;3.83;;
52104;SDS011;38103;42.776;23.112;2023-07-30T01:56:12;10.73;;;4.43;;
52104;SDS011;38103;42.776;23.112;2023-07-30T01:58:38;9.45;;;4.20;;
52104;SDS011;38103;42.776;23.112;2023-07-30T02:01:03;8.77;;;3.90;;
52104;SDS011;38103;42.776;23.112;2023-07-30T02:03:28;10.60;;;4.25;;
52104;SDS011;38103;42.776;23.112;2023-07-30T02:05:54;11.55;;;4.28;;
52104;SDS011;38103;42.776;23.112;2023-07-30T02:08:19;10.07;;;4.43;;
52104;SDS011;38103;42.776;23.112;2023-07-30T02:10:53;9.73;;;4.25;;
52104;SDS011;38103;42.776;23.112;2023-07-30T02:13:19;10.38;;;4.68;;
52104;SDS011;38103;42.776;23.112;2023-07-30T02:15:45;12.27;;;4.32;;
52104;SDS011;38103;42.776;23.112;2023-07-30T02:18:10;9.20;;;4.07;;
52104;SDS011;38103;42.776;23.112;2023-07-30T02:20:35;11.38;;;4.45;;
52104;SDS011;38103;42.776;23.112;2023-07-30T02:23:01;14.73;;;4.85;;
52104;SDS011;38103;42.776;23.112;2023-07-30T02:25:26;10.55;;;4.38;;
52104;SDS011;38103;42.776;23.112;2023-07-30T02:27:51;12.38;;;4.00;;
52104;SDS011;38103;42.776;23.112;2023-07-30T02:30:17;10.60;;;4.28;;
52104;SDS011;38103;42.776;23.112;2023-07-30T02:32:42;9.10;;;4.13;;
52104;SDS011;38103;42.776;23.112;2023-07-30T02:35:07;10.90;;;4.43;;
52104;SDS011;38103;42.776;23.112;2023-07-30T02:37:33;9.68;;;4.22;;
52104;SDS011;38103;42.776;23.112;2023-07-30T02:39:58;10.93;;;4.70;;
52104;SDS011;38103;42.776;23.112;2023-07-30T02:42:24;9.20;;;4.20;;
52104;SDS011;38103;42.776;23.112;2023-07-30T02:44:49;11.18;;;4.80;;
52104;SDS011;38103;42.776;23.112;2023-07-30T02:47:15;9.75;;;4.70;;
52104;SDS011;38103;42.776;23.112;2023-07-30T02:49:40;9.60;;;4.60;;
52104;SDS011;38103;42.776;23.112;2023-07-30T02:52:06;10.48;;;4.38;;
52104;SDS011;38103;42.776;23.112;2023-07-30T02:54:31;10.35;;;4.20;;
52104;SDS011;38103;42.776;23.112;2023-07-30T02:56:57;11.55;;;4.43;;
52104;SDS011;38103;42.776;23.112;2023-07-30T02:59:22;10.23;;;4.50;;
52104;SDS011;38103;42.776;23.112;2023-07-30T03:01:47;11.85;;;4.55;;
52104;SDS011;38103;42.776;23.112;2023-07-30T03:04:13;13.20;;;4.68;;
52104;SDS011;38103;42.776;23.112;2023-07-30T03:06:38;9.73;;;4.20;;
52104;SDS011;38103;42.776;23.112;2023-07-30T03:09:03;9.35;;;4.60;;
52104;SDS011;38103;42.776;23.112;2023-07-30T03:11:29;9.55;;;4.25;;
52104;SDS011;38103;42.776;23.112;2023-07-30T03:13:54;12.20;;;4.50;;
52104;SDS011;38103;42.776;23.112;2023-07-30T03:16:19;10.45;;;4.60;;
52104;SDS011;38103;42.776;23.112;2023-07-30T03:18:45;10.30;;;4.75;;
52104;SDS011;38103;42.776;23.112;2023-07-30T03:21:10;13.75;;;4.70;;
52104;SDS011;38103;42.776;23.112;2023-07-30T03:23:35;10.75;;;4.82;;
52104;SDS011;38103;42.776;23.112;2023-07-30T03:26:01;10.48;;;4.90;;
52104;SDS011;38103;42.776;23.112;2023-07-30T03:28:26;10.00;;;4.63;;
52104;SDS011;38103;42.776;23.112;2023-07-30T03:30:52;12.00;;;5.10;;
52104;SDS011;38103;42.776;23.112;2023-07-30T03:33:17;11.63;;;4.75;;
52104;SDS011;38103;42.776;23.112;2023-07-30T03:35:42;9.35;;;4.38;;
52104;SDS011;38103;42.776;23.112;2023-07-30T03:38:08;9.98;;;4.68;;
52104;SDS011;38103;42.776;23.112;2023-07-30T03:40:33;12.52;;;5.22;;
52104;SDS011;38103;42.776;23.112;2023-07-30T03:42:58;10.68;;;4.60;;
52104;SDS011;38103;42.776;23.112;2023-07-30T03:45:24;11.80;;;4.53;;
52104;SDS011;38103;42.776;23.112;2023-07-30T03:47:49;14.55;;;5.03;;
52104;SDS011;38103;42.776;23.112;2023-07-30T03:50:14;12.52;;;4.57;;
52104;SDS011;38103;42.776;23.112;2023-07-30T03:52:40;12.13;;;4.70;;
52104;SDS011;38103;42.776;23.112;2023-07-30T03:55:05;9.95;;;4.43;;
52104;SDS011;38103;42.776;23.112;2023-07-30T03:57:31;12.23;;;4.30;;
52104;SDS011;38103;42.776;23.112;2023-07-30T03:59:56;12.52;;;4.60;;
52104;SDS011;38103;42.776;23.112;2023-07-30T04:02:21;9.40;;;4.10;;
52104;SDS011;38103;42.776;23.112;2023-07-30T04:04:47;9.35;;;4.10;;
52104;SDS011;38103;42.776;23.112;2023-07-30T04:07:14;11.07;;;4.03;;
52104;SDS011;38103;42.776;23.112;2023-07-30T04:09:40;11.50;;;4.25;;
52104;SDS011;38103;42.776;23.112;2023-07-30T04:12:05;9.02;;;4.13;;
52104;SDS011;38103;42.776;23.112;2023-07-30T04:14:31;9.70;;;3.90;;
52104;SDS011;38103;42.776;23.112;2023-07-30T04:16:56;11.43;;;3.80;;
52104;SDS011;38103;42.776;23.112;2023-07-30T04:19:21;10.13;;;3.70;;
52104;SDS011;38103;42.776;23.112;2023-07-30T04:21:47;21.63;;;4.88;;
52104;SDS011;38103;42.776;23.112;2023-07-30T04:24:12;11.05;;;4.00;;
52104;SDS011;38103;42.776;23.112;2023-07-30T04:26:37;13.25;;;3.97;;
52104;SDS011;38103;42.776;23.112;2023-07-30T04:29:03;14.32;;;3.85;;
52104;SDS011;38103;42.776;23.112;2023-07-30T04:31:28;10.60;;;3.85;;
52104;SDS011;38103;42.776;23.112;2023-07-30T04:33:54;9.65;;;3.80;;
52104;SDS011;38103;42.776;23.112;2023-07-30T04:36:19;11.32;;;4.22;;
52104;SDS011;38103;42.776;23.112;2023-07-30T04:38:44;10.70;;;3.75;;
52104;SDS011;38103;42.776;23.112;2023-07-30T04:41:10;9.77;;;3.90;;
52104;SDS011;38103;42.776;23.112;2023-07-30T04:43:35;15.90;;;3.80;;
52104;SDS011;38103;42.776;23.112;2023-07-30T04:46:00;9.32;;;4.10;;
52104;SDS011;38103;42.776;23.112;2023-07-30T04:48:26;9.18;;;3.83;;
52104;SDS011;38103;42.776;23.112;2023-07-30T04:50:51;11.38;;;3.92;;
52104;SDS011;38103;42.776;23.112;2023-07-30T04:53:17;10.13;;;3.95;;
52104;SDS011;38103;42.776;23.112;2023-07-30T04:55:43;12.27;;;4.25;;
52104;SDS011;38103;42.776;23.112;2023-07-30T04:58:09;11.45;;;4.05;;
52104;SDS011;38103;42.776;23.112;2023-07-30T05:00:34;12.45;;;4.38;;
52104;SDS011;38103;42.776;23.112;2023-07-30T05:02:59;11.60;;;4.43;;
52104;SDS011;38103;42.776;23.112;2023-07-30T05:05:25;11.52;;;5.00;;
52104;SDS011;38103;42.776;23.112;2023-07-30T05:07:50;13.25;;;4.47;;
52104;SDS011;38103;42.776;23.112;2023-07-30T05:10:15;11.63;;;4.60;;
52104;SDS011;38103;42.776;23.112;2023-07-30T05:12:41;10.77;;;4.70;;
52104;SDS011;38103;42.776;23.112;2023-07-30T05:15:07;12.00;;;4.97;;
52104;SDS011;38103;42.776;23.112;2023-07-30T05:17:32;12.85;;;4.50;;
52104;SDS011;38103;42.776;23.112;2023-07-30T05:19:58;14.00;;;4.68;;
52104;SDS011;38103;42.776;23.112;2023-07-30T05:22:23;11.18;;;4.95;;
52104;SDS011;38103;42.776;23.112;2023-07-30T05:24:50;10.52;;;4.60;;
52104;SDS011;38103;42.776;23.112;2023-07-30T05:27:15;11.82;;;4.55;;
52104;SDS011;38103;42.776;23.112;2023-07-30T05:29:41;10.80;;;4.55;;
52104;SDS011;38103;42.776;23.112;2023-07-30T05:32:07;11.35;;;4.45;;
52104;SDS011;38103;42.776;23.112;2023-07-30T05:34:32;10.95;;;4.20;;
52104;SDS011;38103;42.776;23.112;2023-07-30T05:36:58;13.52;;;4.57;;
52104;SDS011;38103;42.776;23.112;2023-07-30T05:39:23;11.65;;;4.40;;
52104;SDS011;38103;42.776;23.112;2023-07-30T05:41:48;10.80;;;4.60;;
52104;SDS011;38103;42.776;23.112;2023-07-30T05:44:14;10.57;;;4.57;;
52104;SDS011;38103;42.776;23.112;2023-07-30T05:46:39;10.07;;;4.85;;
52104;SDS011;38103;42.776;23.112;2023-07-30T05:49:04;10.70;;;4.20;;
52104;SDS011;38103;42.776;23.112;2023-07-30T05:51:30;10.73;;;4.68;;
52104;SDS011;38103;42.776;23.112;2023-07-30T05:53:55;10.02;;;4.60;;
52104;SDS011;38103;42.776;23.112;2023-07-30T05:56:20;11.75;;;4.45;;
52104;SDS011;38103;42.776;23.112;2023-07-30T05:58:46;12.68;;;4.43;;
52104;SDS011;38103;42.776;23.112;2023-07-30T06:01:11;10.00;;;4.07;;
52104;SDS011;38103;42.776;23.112;2023-07-30T06:03:37;9.98;;;4.28;;
52104;SDS011;38103;42.776;23.112;2023-07-30T06:06:02;9.48;;;3.72;;
52104;SDS011;38103;42.776;23.112;2023-07-30T06:08:28;9.98;;;3.90;;
52104;SDS011;38103;42.776;23.112;2023-07-30T06:10:54;9.55;;;4.20;;
52104;SDS011;38103;42.776;23.112;2023-07-30T06:13:20;10.15;;;4.07;;
52104;SDS011;38103;42.776;23.112;2023-07-30T06:15:46;9.77;;;3.80;;
52104;SDS011;38103;42.776;23.112;2023-07-30T06:18:11;10.38;;;3.90;;
52104;SDS011;38103;42.776;23.112;2023-07-30T06:20:37;10.73;;;3.83;;
52104;SDS011;38103;42.776;23.112;2023-07-30T06:23:02;12.40;;;3.97;;
52104;SDS011;38103;42.776;23.112;2023-07-30T06:25:28;9.65;;;4.20;;
52104;SDS011;38103;42.776;23.112;2023-07-30T06:27:54;10.50;;;4.50;;
52104;SDS011;38103;42.776;23.112;2023-07-30T06:30:22;12.32;;;3.85;;
52104;SDS011;38103;42.776;23.112;2023-07-30T06:32:48;8.90;;;3.78;;
52104;SDS011;38103;42.776;23.112;2023-07-30T06:35:13;12.38;;;4.28;;
52104;SDS011;38103;42.776;23.112;2023-07-30T06:37:38;15.13;;;4.57;;
52104;SDS011;38103;42.776;23.112;2023-07-30T06:40:04;10.65;;;4.50;;
52104;SDS011;38103;42.776;23.112;2023-07-30T06:42:31;11.55;;;4.25;;
52104;SDS011;38103;42.776;23.112;2023-07-30T06:44:56;10.05;;;4.30;;
52104;SDS011;38103;42.776;23.112;2023-07-30T06:47:22;11.93;;;4.40;;
52104;SDS011;38103;42.776;23.112;2023-07-30T06:49:47;9.82;;;4.18;;
52104;SDS011;38103;42.776;23.112;2023-07-30T06:52:12;9.60;;;4.05;;
52104;SDS011;38103;42.776;23.112;2023-07-30T06:54:38;10.52;;;4.70;;
52104;SDS011;38103;42.776;23.112;2023-07-30T06:57:03;10.70;;;4.28;;
52104;SDS011;38103;42.776;23.112;2023-07-30T06:59:29;11.18;;;4.38;;
52104;SDS011;38103;42.776;23.112;2023-07-30T07:01:54;15.43;;;4.32;;
52104;SDS011;38103;42.776;23.112;2023-07-30T07:04:19;14.55;;;4.18;;
52104;SDS011;38103;42.776;23.112;2023-07-30T07:06:45;16.48;;;4.90;;
52104;SDS011;38103;42.776;23.112;2023-07-30T07:09:10;13.15;;;4.22;;
52104;SDS011;38103;42.776;23.112;2023-07-30T07:11:36;14.35;;;4.50;;
52104;SDS011;38103;42.776;23.112;2023-07-30T07:14:01;21.42;;;4.78;;
52104;SDS011;38103;42.776;23.112;2023-07-30T07:16:26;15.40;;;4.20;;
52104;SDS011;38103;42.776;23.112;2023-07-30T07:18:52;22.88;;;4.18;;
52104;SDS011;38103;42.776;23.112;2023-07-30T07:21:17;16.45;;;4.18;;
52104;SDS011;38103;42.776;23.112;2023-07-30T07:23:42;16.42;;;4.82;;
52104;SDS011;38103;42.776;23.112;2023-07-30T07:26:08;24.60;;;4.60;;
52104;SDS011;38103;42.776;23.112;2023-07-30T07:28:33;19.88;;;4.20;;
52104;SDS011;38103;42.776;23.112;2023-07-30T07:30:58;22.40;;;4.10;;
52104;SDS011;38103;42.776;23.112;2023-07-30T07:33:24;18.27;;;4.72;;
52104;SDS011;38103;42.776;23.112;2023-07-30T07:35:49;21.13;;;3.97;;
52104;SDS011;38103;42.776;23.112;2023-07-30T07:38:15;30.55;;;4.50;;
52104;SDS011;38103;42.776;23.112;2023-07-30T07:40:40;28.73;;;4.85;;
52104;SDS011;38103;42.776;23.112;2023-07-30T07:43:06;15.05;;;4.20;;
52104;SDS011;38103;42.776;23.112;2023-07-30T07:45:32;20.85;;;4.43;;
52104;SDS011;38103;42.776;23.112;2023-07-30T07:47:57;22.02;;;4.22;;
52104;SDS011;38103;42.776;23.112;2023-07-30T07:50:23;15.98;;;4.32;;
52104;SDS011;38103;42.776;23.112;2023-07-30T07:52:48;13.23;;;4.32;;
52104;SDS011;38103;42.776;23.112;2023-07-30T07:55:13;17.77;;;4.55;;
52104;SDS011;38103;42.776;23.112;2023-07-30T07:57:39;14.32;;;4.40;;
52104;SDS011;38103;42.776;23.112;2023-07-30T08:00:05;14.18;;;4.40;;
52104;SDS011;38103;42.776;23.112;2023-07-30T08:02:31;14.02;;;4.25;;
52104;SDS011;38103;42.776;23.112;2023-07-30T08:04:57;13.70;;;4.15;;
52104;SDS011;38103;42.776;23.112;2023-07-30T08:07:22;11.88;;;3.65;;
52104;SDS011;38103;42.776;23.112;2023-07-30T08:09:48;9.82;;;3.88;;
52104;SDS011;38103;42.776;23.112;2023-07-30T08:12:14;10.95;;;4.00;;
52104;SDS011;38103;42.776;23.112;2023-07-30T08:14:39;11.95;;;3.95;;
52104;SDS011;38103;42.776;23.112;2023-07-30T08:17:05;11.65;;;3.95;;
52104;SDS011;38103;42.776;23.112;2023-07-30T08:19:30;10.75;;;3.65;;
52104;SDS011;38103;42.776;23.112;2023-07-30T08:21:55;12.07;;;3.97;;
52104;SDS011;38103;42.776;23.112;2023-07-30T08:24:23;9.93;;;3.40;;
52104;SDS011;38103;42.776;23.112;2023-07-30T08:26:48;10.98;;;3.60;;
52104;SDS011;38103;42.776;23.112;2023-07-30T08:29:14;10.52;;;4.00;;
52104;SDS011;38103;42.776;23.112;2023-07-30T08:31:40;9.52;;;3.90;;
52104;SDS011;38103;42.776;23.112;2023-07-30T08:34:06;12.25;;;3.95;;
52104;SDS011;38103;42.776;23.112;2023-07-30T08:36:31;12.40;;;4.13;;
52104;SDS011;38103;42.776;23.112;2023-07-30T08:38:57;9.50;;;3.88;;
52104;SDS011;38103;42.776;23.112;2023-07-30T08:41:22;12.63;;;3.88;;
52104;SDS011;38103;42.776;23.112;2023-07-30T08:43:48;10.25;;;4.00;;
52104;SDS011;38103;42.776;23.112;2023-07-30T08:46:15;21.42;;;4.80;;
52104;SDS011;38103;42.776;23.112;2023-07-30T08:48:42;9.98;;;4.05;;
52104;SDS011;38103;42.776;23.112;2023-07-30T08:51:12;14.00;;;4.05;;
52104;SDS011;38103;42.776;23.112;2023-07-30T08:53:39;15.10;;;4.50;;
52104;SDS011;38103;42.776;23.112;2023-07-30T08:56:05;9.93;;;3.53;;
52104;SDS011;38103;42.776;23.112;2023-07-30T08:58:31;9.23;;;3.80;;
52104;SDS011;38103;42.776;23.112;2023-07-30T09:00:58;9.55;;;3.90;;
52104;SDS011;38103;42.776;23.112;2023-07-30T09:03:26;9.90;;;3.67;;
52104;SDS011;38103;42.776;23.112;2023-07-30T09:05:53;8.85;;;3.38;;
52104;SDS011;38103;42.776;23.112;2023-07-30T09:08:19;9.40;;;3.72;;
52104;SDS011;38103;42.776;23.112;2023-07-30T09:10:45;9.45;;;3.90;;
52104;SDS011;38103;42.776;23.112;2023-07-30T09:13:10;10.38;;;3.55;;
52104;SDS011;38103;42.776;23.112;2023-07-30T09:15:36;10.35;;;3.88;;
52104;SDS011;38103;42.776;23.112;2023-07-30T09:18:03;9.73;;;3.95;;
52104;SDS011;38103;42.776;23.112;2023-07-30T09:20:47;9.25;;;3.50;;
52104;SDS011;38103;42.776;23.112;2023-07-30T09:25:38;10.60;;;3.78;;
52104;SDS011;38103;42.776;23.112;2023-07-30T09:28:05;10.20;;;3.90;;
52104;SDS011;38103;42.776;23.112;2023-07-30T09:30:31;9.48;;;3.80;;
52104;SDS011;38103;42.776;23.112;2023-07-30T09:32:58;10.07;;;3.70;;
52104;SDS011;38103;42.776;23.112;2023-07-30T09:35:24;9.60;;;3.80;;
52104;SDS011;38103;42.776;23.112;2023-07-30T09:37:57;11.50;;;3.80;;
52104;SDS011;38103;42.776;23.112;2023-07-30T09:40:30;9.38;;;3.50;;
52104;SDS011;38103;42.776;23.112;2023-07-30T09:43:04;11.35;;;4.10;;
52104;SDS011;38103;42.776;23.112;2023-07-30T09:45:32;9.65;;;3.97;;
52104;SDS011;38103;42.776;23.112;2023-07-30T09:47:59;10.75;;;4.20;;
52104;SDS011;38103;42.776;23.112;2023-07-30T09:50:27;12.35;;;3.92;;
52104;SDS011;38103;42.776;23.112;2023-07-30T09:52:53;14.95;;;3.97;;
52104;SDS011;38103;42.776;23.112;2023-07-30T09:55:19;11.00;;;3.70;;
52104;SDS011;38103;42.776;23.112;2023-07-30T09:57:44;10.15;;;3.75;;
52104;SDS011;38103;42.776;23.112;2023-07-30T10:00:10;9.65;;;3.90;;
52104;SDS011;38103;42.776;23.112;2023-07-30T10:02:39;10.48;;;3.97;;
52104;SDS011;38103;42.776;23.112;2023-07-30T10:05:08;12.98;;;4.18;;
52104;SDS011;38103;42.776;23.112;2023-07-30T10:07:38;10.27;;;3.90;;
52104;SDS011;38103;42.776;23.112;2023-07-30T10:10:06;10.77;;;3.88;;
52104;SDS011;38103;42.776;23.112;2023-07-30T10:12:33;9.65;;;4.22;;
52104;SDS011;38103;42.776;23.112;2023-07-30T10:15:01;10.80;;;4.10;;
52104;SDS011;38103;42.776;23.112;2023-07-30T10:17:26;10.32;;;4.07;;
52104;SDS011;38103;42.776;23.112;2023-07-30T10:19:53;10.48;;;4.13;;
52104;SDS011;38103;42.776;23.112;2023-07-30T10:27:23;10.13;;;4.20;;
52104;SDS011;38103;42.776;23.112;2023-07-30T10:29:51;11.57;;;4.10;;
52104;SDS011;38103;42.776;23.112;2023-07-30T10:38:14;10.57;;;4.10;;
52104;SDS011;38103;42.776;23.112;2023-07-30T10:40:42;11.70;;;4.45;;
52104;SDS011;38103;42.776;23.112;2023-07-30T10:43:45;12.82;;;3.90;;
52104;SDS011;38103;42.776;23.112;2023-07-30T10:46:14;9.80;;;4.53;;
52104;SDS011;38103;42.776;23.112;2023-07-30T10:48:43;11.10;;;4.63;;
52104;SDS011;38103;42.776;23.112;2023-07-30T10:51:11;9.98;;;4.20;;
52104;SDS011;38103;42.776;23.112;2023-07-30T10:53:38;10.73;;;4.28;;
52104;SDS011;38103;42.776;23.112;2023-07-30T10:56:07;11.07;;;4.20;;
52104;SDS011;38103;42.776;23.112;2023-07-30T10:58:35;17.65;;;4.70;;
52104;SDS011;38103;42.776;23.112;2023-07-30T11:01:01;12.35;;;4.30;;
52104;SDS011;38103;42.776;23.112;2023-07-30T11:03:28;10.05;;;3.97;;
52104;SDS011;38103;42.776;23.112;2023-07-30T11:05:54;12.48;;;4.25;;
52104;SDS011;38103;42.776;23.112;2023-07-30T11:08:36;10.48;;;3.97;;
52104;SDS011;38103;42.776;23.112;2023-07-30T11:11:03;11.75;;;4.80;;
52104;SDS011;38103;42.776;23.112;2023-07-30T11:13:34;11.27;;;4.20;;
52104;SDS011;38103;42.776;23.112;2023-07-30T11:16:06;10.50;;;4.25;;
52104;SDS011;38103;42.776;23.112;2023-07-30T11:18:33;11.05;;;4.43;;
52104;SDS011;38103;42.776;23.112;2023-07-30T11:21:02;12.27;;;4.43;;
52104;SDS011;38103;42.776;23.112;2023-07-30T11:23:32;11.33;;;4.77;;
52104;SDS011;38103;42.776;23.112;2023-07-30T11:25:59;11.77;;;4.43;;
52104;SDS011;38103;42.776;23.112;2023-07-30T11:28:29;14.93;;;4.55;;
52104;SDS011;38103;42.776;23.112;2023-07-30T11:30:58;10.02;;;4.38;;
52104;SDS011;38103;42.776;23.112;2023-07-30T11:33:26;12.07;;;4.78;;
52104;SDS011;38103;42.776;23.112;2023-07-30T11:35:53;10.57;;;4.80;;
52104;SDS011;38103;42.776;23.112;2023-07-30T11:38:22;10.85;;;4.70;;
52104;SDS011;38103;42.776;23.112;2023-07-30T11:40:52;11.55;;;4.47;;
52104;SDS011;38103;42.776;23.112;2023-07-30T11:43:22;12.45;;;4.32;;
52104;SDS011;38103;42.776;23.112;2023-07-30T11:45:48;11.32;;;4.40;;
52104;SDS011;38103;42.776;23.112;2023-07-30T11:48:30;11.27;;;4.55;;
52104;SDS011;38103;42.776;23.112;2023-07-30T11:50:55;12.95;;;4.53;;
52104;SDS011;38103;42.776;23.112;2023-07-30T11:53:21;11.80;;;4.70;;
52104;SDS011;38103;42.776;23.112;2023-07-30T11:55:46;12.57;;;4.25;;
52104;SDS011;38103;42.776;23.112;2023-07-30T11:58:12;12.07;;;4.68;;
52104;SDS011;38103;42.776;23.112;2023-07-30T12:00:38;11.82;;;4.68;;
52104;SDS011;38103;42.776;23.112;2023-07-30T12:03:06;12.70;;;4.28;;
52104;SDS011;38103;42.776;23.112;2023-07-30T12:05:34;11.23;;;4.45;;
52104;SDS011;38103;42.776;23.112;2023-07-30T12:08:01;11.15;;;4.22;;
52104;SDS011;38103;42.776;23.112;2023-07-30T12:10:40;10.88;;;4.50;;
52104;SDS011;38103;42.776;23.112;2023-07-30T12:13:18;10.93;;;4.50;;
52104;SDS011;38103;42.776;23.112;2023-07-30T12:15:51;17.80;;;4.80;;
52104;SDS011;38103;42.776;23.112;2023-07-30T12:20:42;15.98;;;4.50;;
52104;SDS011;38103;42.776;23.112;2023-07-30T12:23:08;11.82;;;4.45;;
52104;SDS011;38103;42.776;23.112;2023-07-30T12:25:33;11.43;;;4.43;;
52104;SDS011;38103;42.776;23.112;2023-07-30T12:27:59;11.65;;;4.63;;
52104;SDS011;38103;42.776;23.112;2023-07-30T12:30:25;11.30;;;5.00;;
52104;SDS011;38103;42.776;23.112;2023-07-30T12:32:51;13.55;;;4.82;;
52104;SDS011;38103;42.776;23.112;2023-07-30T12:35:17;11.75;;;4.60;;
52104;SDS011;38103;42.776;23.112;2023-07-30T12:37:42;13.90;;;4.53;;
52104;SDS011;38103;42.776;23.112;2023-07-30T12:40:08;10.90;;;4.45;;
52104;SDS011;38103;42.776;23.112;2023-07-30T12:42:33;12.27;;;4.90;;
52104;SDS011;38103;42.776;23.112;2023-07-30T12:44:59;12.68;;;5.53;;
52104;SDS011;38103;42.776;23.112;2023-07-30T12:47:24;14.68;;;4.68;;
52104;SDS011;38103;42.776;23.112;2023-07-30T12:49:49;13.07;;;5.85;;
52104;SDS011;38103;42.776;23.112;2023-07-30T12:52:15;12.93;;;4.43;;
52104;SDS011;38103;42.776;23.112;2023-07-30T12:54:40;11.75;;;4.40;;
52104;SDS011;38103;42.776;23.112;2023-07-30T12:57:05;11.75;;;4.57;;
52104;SDS011;38103;42.776;23.112;2023-07-30T12:59:31;17.45;;;4.70;;
52104;SDS011;38103;42.776;23.112;2023-07-30T13:01:57;13.75;;;4.53;;
52104;SDS011;38103;42.776;23.112;2023-07-30T13:04:23;10.73;;;4.20;;
52104;SDS011;38103;42.776;23.112;2023-07-30T13:06:52;13.65;;;4.72;;
52104;SDS011;38103;42.776;23.112;2023-07-30T13:09:18;11.73;;;4.63;;
52104;SDS011;38103;42.776;23.112;2023-07-30T13:11:43;11.77;;;4.55;;
52104;SDS011;38103;42.776;23.112;2023-07-30T13:14:09;11.85;;;4.30;;
52104;SDS011;38103;42.776;23.112;2023-07-30T13:16:34;12.20;;;4.50;;
52104;SDS011;38103;42.776;23.112;2023-07-30T13:18:59;11.82;;;4.10;;
52104;SDS011;38103;42.776;23.112;2023-07-30T13:21:25;12.02;;;4.55;;
52104;SDS011;38103;42.776;23.112;2023-07-30T13:23:50;11.73;;;4.60;;
52104;SDS011;38103;42.776;23.112;2023-07-30T13:26:16;14.95;;;4.38;;
52104;SDS011;38103;42.776;23.112;2023-07-30T13:28:41;11.45;;;4.43;;
52104;SDS011;38103;42.776;23.112;2023-07-30T13:31:07;12.60;;;4.68;;
52104;SDS011;38103;42.776;23.112;2023-07-30T13:33:32;12.02;;;4.57;;
52104;SDS011;38103;42.776;23.112;2023-07-30T13:35:57;10.85;;;4.50;;
52104;SDS011;38103;42.776;23.112;2023-07-30T13:38:23;12.13;;;4.25;;
52104;SDS011;38103;42.776;23.112;2023-07-30T13:40:51;11.88;;;4.60;;
52104;SDS011;38103;42.776;23.112;2023-07-30T13:43:16;13.40;;;4.53;;
52104;SDS011;38103;42.776;23.112;2023-07-30T13:45:42;16.60;;;4.70;;
52104;SDS011;38103;42.776;23.112;2023-07-30T13:48:07;11.65;;;4.32;;
52104;SDS011;38103;42.776;23.112;2023-07-30T13:50:34;10.38;;;4.57;;
52104;SDS011;38103;42.776;23.112;2023-07-30T13:52:59;14.32;;;4.75;;
52104;SDS011;38103;42.776;23.112;2023-07-30T13:55:25;12.43;;;4.32;;
52104;SDS011;38103;42.776;23.112;2023-07-30T13:57:50;9.70;;;4.20;;
52104;SDS011;38103;42.776;23.112;2023-07-30T14:00:15;13.15;;;4.47;;
52104;SDS011;38103;42.776;23.112;2023-07-30T14:02:41;11.80;;;4.82;;
52104;SDS011;38103;42.776;23.112;2023-07-30T14:05:07;12.30;;;4.78;;
52104;SDS011;38103;42.776;23.112;2023-07-30T14:07:33;10.98;;;4.35;;
52104;SDS011;38103;42.776;23.112;2023-07-30T14:09:59;12.30;;;4.30;;
52104;SDS011;38103;42.776;23.112;2023-07-30T14:12:25;10.45;;;4.40;;
52104;SDS011;38103;42.776;23.112;2023-07-30T14:14:50;10.27;;;4.40;;
52104;SDS011;38103;42.776;23.112;2023-07-30T14:17:15;13.48;;;4.45;;
52104;SDS011;38103;42.776;23.112;2023-07-30T14:19:41;11.25;;;4.32;;
52104;SDS011;38103;42.776;23.112;2023-07-30T14:22:07;10.82;;;4.40;;
52104;SDS011;38103;42.776;23.112;2023-07-30T14:24:32;12.35;;;4.32;;
52104;SDS011;38103;42.776;23.112;2023-07-30T14:26:58;10.00;;;4.55;;
52104;SDS011;38103;42.776;23.112;2023-07-30T14:29:23;18.27;;;4.68;;
52104;SDS011;38103;42.776;23.112;2023-07-30T14:31:48;10.20;;;4.68;;
52104;SDS011;38103;42.776;23.112;2023-07-30T14:34:14;11.05;;;4.60;;
52104;SDS011;38103;42.776;23.112;2023-07-30T14:36:39;9.82;;;4.45;;